Cravinhos, Brazil
Current Conditions -  °F | °C
As of 8:00 AM on Saturday 22 Nov 2014 (Local Time) from SBRP Reporting Station
Clear Clear  
Wind Chill: 81°   Ceiling: Unl
Heat Index: 82°   Visibility: 6mi
Dew Point: 63°   Wind: 7mph
Humidity: 54%   Direction: 130°SE
Pressure: 29.91"   Gusts: NA
Location:  21.34°S, 47.73°W
Report Text: SBRP 221000Z 13006KT CAVOK 27/17 Q1013
Loading
Personal Weather Stations






























Interactive Weather Map New forecast layout! Learn more

10-Day Weather Forecast

Advertisements
Track Severe Weather on mobile